createdAt,value
2019-04-26T00:00:37.776Z,11.45
2019-04-26T00:01:37.760Z,11.49
2019-04-26T00:02:37.760Z,11.46
2019-04-26T00:03:37.753Z,11.38
2019-04-26T00:04:37.728Z,11.35
2019-04-26T00:05:38.130Z,11.30
2019-04-26T00:06:37.707Z,11.24
2019-04-26T00:07:37.709Z,11.23
2019-04-26T00:08:37.689Z,11.24
2019-04-26T00:09:37.675Z,11.24
2019-04-26T00:10:37.680Z,11.24
2019-04-26T00:11:37.716Z,11.24
2019-04-26T00:13:05.767Z,11.35
2019-04-26T00:13:37.654Z,11.38
2019-04-26T00:14:37.639Z,11.35
2019-04-26T00:15:37.625Z,11.41
2019-04-26T00:16:37.614Z,11.33
2019-04-26T00:17:37.601Z,11.35
2019-04-26T00:18:39.482Z,11.30
2019-04-26T00:19:37.580Z,11.20
2019-04-26T00:20:37.568Z,11.28
2019-04-26T00:21:37.571Z,11.20
2019-04-26T00:22:37.544Z,11.09
2019-04-26T00:23:37.551Z,11.09
2019-04-26T00:24:37.527Z,11.16
2019-04-26T00:25:37.526Z,11.06
2019-04-26T00:26:37.500Z,11.05
2019-04-26T00:27:37.497Z,11.19
2019-04-26T00:28:37.485Z,11.13
2019-04-26T00:29:37.485Z,11.24
2019-04-26T00:30:37.469Z,11.13
2019-04-26T00:31:37.480Z,11.16
2019-04-26T00:32:37.446Z,11.08
2019-04-26T00:33:37.463Z,11.08
2019-04-26T00:34:37.422Z,11.02
2019-04-26T00:35:47.338Z,11.01
2019-04-26T00:36:38.393Z,11.05
2019-04-26T00:37:37.385Z,11.05
2019-04-26T00:38:37.375Z,11.11
2019-04-26T00:39:37.361Z,11.20
2019-04-26T00:40:37.353Z,11.06
2019-04-26T00:41:37.341Z,11.17
2019-04-26T00:42:37.357Z,11.08
2019-04-26T00:43:37.322Z,11.12
2019-04-26T00:44:37.323Z,10.98
2019-04-26T00:45:37.295Z,10.93
2019-04-26T00:46:37.285Z,10.98
2019-04-26T00:47:37.290Z,10.94
2019-04-26T00:48:37.279Z,10.86
2019-04-26T00:49:43.391Z,10.86
2019-04-26T00:50:38.229Z,10.91
2019-04-26T00:51:37.241Z,10.84
2019-04-26T00:52:37.263Z,10.81
2019-04-26T00:53:37.210Z,10.84
2019-04-26T00:54:37.199Z,10.70
2019-04-26T00:55:37.192Z,10.78
2019-04-26T00:56:37.179Z,10.63
2019-04-26T00:57:37.162Z,10.65
2019-04-26T00:58:37.169Z,10.57
2019-04-26T00:59:37.153Z,10.60
2019-04-26T01:00:37.139Z,10.62
2019-04-26T01:01:37.124Z,10.57
2019-04-26T01:02:37.121Z,10.57
2019-04-26T01:03:37.110Z,10.66
2019-04-26T01:04:37.074Z,10.58
2019-04-26T01:05:37.065Z,10.58
2019-04-26T01:06:37.059Z,10.58
2019-04-26T01:07:37.046Z,10.63
2019-04-26T01:08:37.050Z,10.60
2019-04-26T01:09:37.022Z,10.62
2019-04-26T01:10:37.025Z,10.68
2019-04-26T01:11:37.001Z,10.58
2019-04-26T01:12:37.004Z,10.52
2019-04-26T01:13:36.999Z,10.51
2019-04-26T01:14:36.973Z,10.54
2019-04-26T01:15:36.960Z,10.57
2019-04-26T01:16:36.963Z,10.52
2019-04-26T01:17:36.943Z,10.46
2019-04-26T01:18:36.951Z,10.49
2019-04-26T01:19:36.924Z,10.49
2019-04-26T01:20:36.905Z,10.44
2019-04-26T01:21:36.895Z,10.43
2019-04-26T01:22:36.900Z,10.42
2019-04-26T01:23:36.885Z,10.43
2019-04-26T01:24:36.869Z,10.38
2019-04-26T01:25:36.850Z,10.47
2019-04-26T01:26:36.855Z,10.43
2019-04-26T01:27:36.839Z,10.43
2019-04-26T01:28:36.834Z,10.55
2019-04-26T01:29:36.833Z,10.49
2019-04-26T01:30:36.802Z,10.46
2019-04-26T01:31:36.799Z,10.51
2019-04-26T01:32:36.776Z,10.49
2019-04-26T01:33:36.777Z,10.54
2019-04-26T01:36:12.372Z,10.43
2019-04-26T01:36:48.463Z,10.35
2019-04-26T01:37:47.453Z,10.38
2019-04-26T01:38:47.464Z,10.31
2019-04-26T01:39:47.428Z,10.29
2019-04-26T01:40:47.410Z,10.43
2019-04-26T01:41:47.398Z,10.35
2019-04-26T01:42:47.388Z,10.38
2019-04-26T01:43:47.392Z,10.34
2019-04-26T01:44:47.376Z,10.31
2019-04-26T01:45:47.356Z,10.36
2019-04-26T01:46:47.346Z,10.34
2019-04-26T01:47:47.343Z,10.39
2019-04-26T01:48:47.338Z,10.39
2019-04-26T01:49:47.311Z,10.31
2019-04-26T01:50:47.300Z,10.39
2019-04-26T01:51:47.299Z,10.46
2019-04-26T01:52:47.280Z,10.38
2019-04-26T01:53:47.287Z,10.35
2019-04-26T01:54:47.274Z,10.32
2019-04-26T01:55:47.256Z,10.35
2019-04-26T01:56:47.244Z,10.44
2019-04-26T01:57:47.228Z,10.39
2019-04-26T01:58:47.216Z,10.35
2019-04-26T01:59:47.223Z,10.35
2019-04-26T02:00:47.199Z,10.34
2019-04-26T02:01:47.183Z,10.25
2019-04-26T02:02:47.176Z,10.35
2019-04-26T02:03:47.168Z,10.36
2019-04-26T02:04:47.158Z,10.35
2019-04-26T02:05:47.154Z,10.35
2019-04-26T02:06:47.130Z,10.36
2019-04-26T02:07:47.131Z,10.36
2019-04-26T02:08:47.122Z,10.39
2019-04-26T02:09:47.113Z,10.39
2019-04-26T02:10:47.088Z,10.39
2019-04-26T02:11:47.098Z,10.36
2019-04-26T02:12:47.089Z,10.42
2019-04-26T02:13:47.075Z,10.38
2019-04-26T02:14:47.073Z,10.44
2019-04-26T02:15:47.075Z,10.44
2019-04-26T02:16:47.042Z,10.51
2019-04-26T02:17:47.040Z,10.52
2019-04-26T02:18:47.021Z,10.60
2019-04-26T02:19:47.032Z,10.58
2019-04-26T02:20:47.000Z,10.63
2019-04-26T02:21:46.997Z,10.57
2019-04-26T02:22:46.977Z,10.63
2019-04-26T02:23:46.971Z,10.69
2019-04-26T02:24:46.980Z,10.69
2019-04-26T02:25:46.949Z,10.70
2019-04-26T02:26:46.964Z,10.70
2019-04-26T02:27:46.936Z,10.68
2019-04-26T02:28:46.937Z,10.66
2019-04-26T02:29:46.933Z,10.62
2019-04-26T02:30:46.894Z,10.68
2019-04-26T02:31:46.902Z,10.66
2019-04-26T02:32:46.878Z,10.69
2019-04-26T02:33:46.872Z,10.57
2019-04-26T02:34:46.888Z,10.52
2019-04-26T02:35:46.847Z,10.62
2019-04-26T02:36:57.956Z,10.54
2019-04-26T02:37:47.863Z,10.49
2019-04-26T02:38:46.817Z,10.44
2019-04-26T02:39:46.823Z,10.36
2019-04-26T02:40:46.791Z,10.38
2019-04-26T02:41:46.785Z,10.32
2019-04-26T02:42:46.773Z,10.39
2019-04-26T02:43:46.775Z,10.29
2019-04-26T02:44:46.773Z,10.36
2019-04-26T02:45:46.734Z,10.34
2019-04-26T02:46:46.736Z,10.35
2019-04-26T02:47:46.731Z,10.29
2019-04-26T02:48:46.730Z,10.20
2019-04-26T02:49:46.704Z,10.25
2019-04-26T02:50:46.703Z,10.20
2019-04-26T02:51:46.673Z,10.22
2019-04-26T02:52:46.690Z,10.16
2019-04-26T02:53:46.652Z,10.29
2019-04-26T02:54:46.646Z,10.22
2019-04-26T02:55:46.645Z,10.20
2019-04-26T02:56:46.638Z,10.26
2019-04-26T02:57:46.669Z,10.22
2019-04-26T02:58:46.611Z,10.32
2019-04-26T02:59:46.589Z,10.35
2019-04-26T03:00:46.618Z,10.32
2019-04-26T03:01:46.576Z,10.36
2019-04-26T03:02:46.567Z,10.26
2019-04-26T03:03:46.560Z,10.35
2019-04-26T03:04:46.548Z,10.38
2019-04-26T03:05:46.550Z,10.42
2019-04-26T03:07:02.481Z,10.35
2019-04-26T03:07:47.522Z,10.35
2019-04-26T03:08:46.500Z,10.34
2019-04-26T03:09:46.502Z,10.32
2019-04-26T03:10:46.494Z,10.39
2019-04-26T03:11:46.505Z,10.34
2019-04-26T03:12:46.487Z,10.32
2019-04-26T03:13:46.464Z,10.39
2019-04-26T03:14:46.444Z,10.36
2019-04-26T03:15:46.464Z,10.28
2019-04-26T03:16:46.415Z,10.26
2019-04-26T03:17:46.403Z,10.24
2019-04-26T03:18:46.389Z,10.39
2019-04-26T03:19:46.377Z,10.35
2019-04-26T03:20:46.401Z,10.22
2019-04-26T03:21:46.368Z,10.31
2019-04-26T03:22:46.360Z,10.32
2019-04-26T03:23:58.180Z,10.34
2019-04-26T03:24:48.739Z,10.28
2019-04-26T03:25:46.328Z,10.26
2019-04-26T03:26:46.306Z,10.25
2019-04-26T03:27:46.321Z,10.34
2019-04-26T03:28:46.294Z,10.32
2019-04-26T03:29:46.279Z,10.31
2019-04-26T03:30:52.296Z,10.32
2019-04-26T03:31:53.370Z,10.35
2019-04-26T03:32:50.977Z,10.35
2019-04-26T03:33:53.573Z,10.35
2019-04-26T03:34:53.966Z,10.36
2019-04-26T03:35:56.591Z,10.35
2019-04-26T03:36:47.212Z,10.36
2019-04-26T03:37:46.191Z,10.38
2019-04-26T03:38:46.171Z,10.31
2019-04-26T03:39:46.179Z,10.44
2019-04-26T03:40:46.173Z,10.35
2019-04-26T03:41:46.162Z,10.29
2019-04-26T03:42:46.125Z,10.32
2019-04-26T03:43:46.138Z,10.35
2019-04-26T03:44:46.106Z,10.35
2019-04-26T03:45:46.129Z,10.28
2019-04-26T03:46:46.109Z,10.35
2019-04-26T03:47:46.068Z,10.29
2019-04-26T03:48:46.063Z,10.34
2019-04-26T03:49:46.053Z,10.42
2019-04-26T03:50:46.037Z,10.32
2019-04-26T03:51:46.067Z,10.31
2019-04-26T03:52:46.017Z,10.28
2019-04-26T03:53:46.019Z,10.29
2019-04-26T03:54:45.993Z,10.32
2019-04-26T03:55:45.999Z,10.32
2019-04-26T03:56:46.004Z,10.35
2019-04-26T03:57:46.217Z,10.29
2019-04-26T03:58:45.983Z,10.36
2019-04-26T03:59:46.049Z,10.38
2019-04-26T04:00:47.125Z,10.42
2019-04-26T04:01:46.314Z,10.35
2019-04-26T04:02:46.895Z,10.31
2019-04-26T04:03:47.319Z,10.25
2019-04-26T04:04:46.733Z,10.35
2019-04-26T04:05:47.678Z,10.36
2019-04-26T04:07:02.643Z,10.38
2019-04-26T04:07:51.278Z,10.39
2019-04-26T04:08:46.720Z,10.32
2019-04-26T04:09:46.795Z,10.42
2019-04-26T04:10:47.547Z,10.39
2019-04-26T04:11:47.370Z,10.42
2019-04-26T04:12:47.650Z,10.39
2019-04-26T04:13:50.523Z,10.35
2019-04-26T04:14:48.675Z,10.52
2019-04-26T04:15:46.709Z,10.36
2019-04-26T04:16:47.348Z,10.38
2019-04-26T04:17:47.780Z,10.36
2019-04-26T04:18:45.759Z,10.42
2019-04-26T04:19:45.776Z,10.39
2019-04-26T04:20:46.216Z,10.31
2019-04-26T04:21:46.925Z,10.49
2019-04-26T04:22:47.299Z,10.31
2019-04-26T04:23:47.188Z,10.36
2019-04-26T04:24:46.859Z,10.35
2019-04-26T04:25:47.229Z,10.35
2019-04-26T04:26:46.794Z,10.38
2019-04-26T04:27:47.261Z,10.39
2019-04-26T04:28:46.510Z,10.32
2019-04-26T04:29:52.355Z,10.28
2019-04-26T04:30:47.725Z,10.29
2019-04-26T04:31:46.437Z,10.38
2019-04-26T04:32:47.305Z,10.35
2019-04-26T04:33:47.353Z,10.42
2019-04-26T04:34:47.549Z,10.43
2019-04-26T04:35:47.029Z,10.47
2019-04-26T04:36:46.906Z,10.51
2019-04-26T04:38:05.893Z,10.46
2019-04-26T04:38:48.301Z,10.51
2019-04-26T04:39:46.385Z,10.54
2019-04-26T04:40:47.103Z,10.54
2019-04-26T04:41:46.950Z,10.55
2019-04-26T04:42:45.905Z,10.63
2019-04-26T04:43:48.739Z,10.62
2019-04-26T04:44:45.968Z,10.54
2019-04-26T04:45:46.306Z,10.63
2019-04-26T04:46:47.449Z,10.66
2019-04-26T04:47:48.018Z,10.62
2019-04-26T04:48:47.061Z,10.72
2019-04-26T04:49:46.993Z,10.65
2019-04-26T04:50:46.914Z,10.66
2019-04-26T04:51:46.830Z,10.69
2019-04-26T04:52:46.480Z,10.65
2019-04-26T04:53:46.505Z,10.63
2019-04-26T04:55:00.804Z,10.66
2019-04-26T04:55:47.815Z,10.65
2019-04-26T04:56:45.731Z,10.70
2019-04-26T04:57:45.922Z,10.69
2019-04-26T04:58:46.367Z,10.69
2019-04-26T04:59:46.129Z,10.72
2019-04-26T05:00:45.297Z,10.75
2019-04-26T05:01:46.190Z,10.78
2019-04-26T05:02:46.541Z,10.69
2019-04-26T05:03:45.295Z,10.75
2019-04-26T05:04:45.364Z,10.69
2019-04-26T05:05:45.273Z,10.70
2019-04-26T05:06:45.236Z,10.73
2019-04-26T05:07:45.285Z,10.68
2019-04-26T05:08:45.545Z,10.75
2019-04-26T05:09:45.340Z,10.69
2019-04-26T05:10:45.568Z,10.73
2019-04-26T05:11:45.823Z,10.86
2019-04-26T05:12:45.806Z,10.81
2019-04-26T05:13:46.265Z,10.83
2019-04-26T05:14:46.171Z,10.80
2019-04-26T05:15:46.338Z,10.87
2019-04-26T05:16:46.466Z,10.87
2019-04-26T05:17:46.073Z,10.78
2019-04-26T05:18:45.669Z,10.88
2019-04-26T05:19:45.862Z,10.87
2019-04-26T05:20:45.943Z,10.78
2019-04-26T05:21:45.408Z,10.88
2019-04-26T05:22:46.322Z,10.81
2019-04-26T05:23:46.115Z,10.83
2019-04-26T05:24:45.731Z,10.88
2019-04-26T05:25:45.204Z,10.83
2019-04-26T05:26:46.073Z,10.83
2019-04-26T05:27:46.751Z,10.86
2019-04-26T05:28:46.199Z,10.88
2019-04-26T05:29:46.493Z,10.76
2019-04-26T05:30:46.499Z,10.90
2019-04-26T05:31:47.043Z,10.93
2019-04-26T05:32:44.960Z,10.91
2019-04-26T05:33:46.138Z,10.91
2019-04-26T05:34:44.936Z,10.91
2019-04-26T05:35:44.947Z,10.88
2019-04-26T05:36:44.921Z,10.86
2019-04-26T05:37:44.903Z,10.93
2019-04-26T05:38:44.897Z,10.93
2019-04-26T05:39:44.904Z,10.87
2019-04-26T05:40:44.872Z,10.99
2019-04-26T05:41:44.862Z,10.87
2019-04-26T05:42:44.889Z,10.91
2019-04-26T05:43:44.851Z,10.94
2019-04-26T05:44:44.852Z,10.84
2019-04-26T05:45:44.822Z,10.81
2019-04-26T05:46:44.810Z,10.78
2019-04-26T05:47:44.811Z,10.93
2019-04-26T05:48:44.803Z,10.76
2019-04-26T05:49:44.816Z,10.86
2019-04-26T05:50:44.768Z,10.86
2019-04-26T05:51:44.756Z,10.76
2019-04-26T05:52:44.742Z,10.80
2019-04-26T05:53:44.761Z,10.88
2019-04-26T05:54:44.724Z,10.88
2019-04-26T05:55:44.710Z,10.88
2019-04-26T05:56:44.714Z,10.88
2019-04-26T05:57:44.698Z,10.80
2019-04-26T05:58:44.707Z,10.83
2019-04-26T05:59:44.666Z,10.88
2019-04-26T06:00:44.660Z,10.81
2019-04-26T06:01:44.653Z,10.80
2019-04-26T06:02:44.632Z,10.84
2019-04-26T06:03:44.657Z,10.73
2019-04-26T06:04:44.623Z,10.68
2019-04-26T06:05:44.599Z,10.78
2019-04-26T06:06:44.607Z,10.76
2019-04-26T06:07:44.638Z,10.70
2019-04-26T06:08:44.569Z,10.72
2019-04-26T06:09:44.609Z,10.73
2019-04-26T06:10:44.553Z,10.73
2019-04-26T06:11:44.537Z,10.72
2019-04-26T06:12:44.526Z,10.73
2019-04-26T06:13:44.528Z,10.73
2019-04-26T06:14:44.531Z,10.70
2019-04-26T06:15:44.501Z,10.58
2019-04-26T06:16:44.504Z,10.65
2019-04-26T06:17:44.472Z,10.72
2019-04-26T06:18:44.474Z,10.65
2019-04-26T06:19:44.471Z,10.68
2019-04-26T06:20:44.460Z,10.68
2019-04-26T06:21:44.430Z,10.72
2019-04-26T06:22:44.417Z,10.76
2019-04-26T06:23:44.406Z,10.73
2019-04-26T06:24:44.406Z,10.70
2019-04-26T06:25:44.402Z,10.72
2019-04-26T06:26:44.372Z,10.68
2019-04-26T06:27:44.370Z,10.63
2019-04-26T06:28:44.353Z,10.65
2019-04-26T06:29:44.352Z,10.69
2019-04-26T06:30:45.669Z,10.70
2019-04-26T06:31:44.326Z,10.68
2019-04-26T06:32:56.165Z,10.65
2019-04-26T06:33:45.322Z,10.65
2019-04-26T06:34:44.297Z,10.54
2019-04-26T06:35:44.293Z,10.58
2019-04-26T06:36:44.266Z,10.47
2019-04-26T06:37:44.265Z,10.46
2019-04-26T06:38:44.331Z,10.43
2019-04-26T06:39:44.261Z,10.39
2019-04-26T06:40:44.226Z,10.46
2019-04-26T06:41:44.238Z,10.52
2019-04-26T06:42:44.219Z,10.51
2019-04-26T06:43:44.213Z,10.46
2019-04-26T06:44:44.195Z,10.54
2019-04-26T06:45:44.171Z,10.51
2019-04-26T06:46:44.159Z,10.54
2019-04-26T06:47:44.157Z,10.52
2019-04-26T06:48:44.140Z,10.52
2019-04-26T06:49:44.148Z,10.52
2019-04-26T06:50:44.114Z,10.46
2019-04-26T06:51:44.114Z,10.49
2019-04-26T06:52:44.104Z,10.46
2019-04-26T06:53:44.118Z,10.38
2019-04-26T06:54:44.092Z,10.42
2019-04-26T06:55:44.097Z,10.49
2019-04-26T06:56:44.064Z,10.52
2019-04-26T06:57:44.080Z,10.44
2019-04-26T06:58:44.034Z,10.46
2019-04-26T06:59:44.064Z,10.47
2019-04-26T07:00:44.017Z,10.52
2019-04-26T07:01:44.077Z,10.54
2019-04-26T07:02:43.992Z,10.55
2019-04-26T07:03:43.987Z,10.54
2019-04-26T07:04:43.985Z,10.51
2019-04-26T07:05:43.952Z,10.51
2019-04-26T07:06:43.947Z,10.51
2019-04-26T07:07:43.943Z,10.51
2019-04-26T07:08:56.418Z,10.51
2019-04-26T07:09:44.968Z,10.49
2019-04-26T07:10:43.982Z,10.47
2019-04-26T07:11:43.913Z,10.44
2019-04-26T07:12:43.876Z,10.39
2019-04-26T07:13:43.867Z,10.38
2019-04-26T07:14:43.889Z,10.34
2019-04-26T07:15:43.848Z,10.34
2019-04-26T07:16:43.919Z,10.36
2019-04-26T07:17:43.833Z,10.35
2019-04-26T07:18:43.811Z,10.31
2019-04-26T07:19:43.801Z,10.28
2019-04-26T07:20:43.801Z,10.24
2019-04-26T07:21:43.780Z,10.20
2019-04-26T07:22:43.778Z,10.25
2019-04-26T07:23:43.766Z,10.22
2019-04-26T07:24:43.814Z,10.26
2019-04-26T07:25:43.757Z,10.14
2019-04-26T07:26:43.725Z,10.16
2019-04-26T07:27:43.715Z,10.22
2019-04-26T07:28:43.711Z,10.24
2019-04-26T07:29:43.712Z,10.22
2019-04-26T07:30:43.703Z,10.10
2019-04-26T07:31:43.677Z,10.20
2019-04-26T07:32:43.659Z,10.25
2019-04-26T07:33:43.652Z,10.16
2019-04-26T07:34:43.653Z,10.25
2019-04-26T07:35:43.658Z,10.18
2019-04-26T07:36:43.626Z,10.16
2019-04-26T07:37:43.617Z,10.10
2019-04-26T07:38:43.598Z,10.16
2019-04-26T07:39:43.600Z,10.16
2019-04-26T07:40:43.601Z,10.14
2019-04-26T07:41:43.563Z,10.17
2019-04-26T07:42:43.579Z,10.24
2019-04-26T07:43:43.566Z,10.32
2019-04-26T07:44:43.553Z,10.26
2019-04-26T07:45:43.533Z,10.28
2019-04-26T07:46:43.514Z,10.32
2019-04-26T07:47:43.516Z,10.31
2019-04-26T07:48:43.502Z,10.32
2019-04-26T07:49:43.502Z,10.35
2019-04-26T07:50:43.487Z,10.36
2019-04-26T07:51:43.470Z,10.32
2019-04-26T07:52:44.084Z,10.36
2019-04-26T07:53:43.436Z,10.44
2019-04-26T07:54:43.432Z,10.42
2019-04-26T07:55:43.430Z,10.46
2019-04-26T07:56:43.405Z,10.35
2019-04-26T07:57:44.015Z,10.29
2019-04-26T07:58:43.381Z,10.35
2019-04-26T07:59:43.369Z,10.35
2019-04-26T08:00:44.913Z,10.35
2019-04-26T08:01:43.353Z,10.39
2019-04-26T08:02:43.341Z,10.44
2019-04-26T08:03:43.334Z,10.52
2019-04-26T08:04:43.323Z,10.52
2019-04-26T08:05:43.350Z,10.58
2019-04-26T08:06:43.298Z,10.63
2019-04-26T08:07:43.284Z,10.57
2019-04-26T08:08:43.284Z,10.58
2019-04-26T08:09:46.012Z,10.54
2019-04-26T08:10:43.273Z,10.57
2019-04-26T08:11:43.247Z,10.51
2019-04-26T08:12:43.228Z,10.62
2019-04-26T08:13:43.274Z,10.60
2019-04-26T08:14:43.214Z,10.66
2019-04-26T08:15:43.268Z,10.57
2019-04-26T08:16:43.194Z,10.52
2019-04-26T08:17:43.182Z,10.60
2019-04-26T08:18:43.168Z,10.62
2019-04-26T08:19:43.162Z,10.58
2019-04-26T08:20:43.147Z,10.60
2019-04-26T08:21:47.864Z,10.66
2019-04-26T08:22:44.122Z,10.73
2019-04-26T08:23:43.261Z,10.70
2019-04-26T08:24:43.102Z,10.70
2019-04-26T08:25:43.105Z,10.76
2019-04-26T08:26:43.102Z,10.81
2019-04-26T08:27:43.069Z,10.87
2019-04-26T08:28:43.060Z,10.84
2019-04-26T08:29:43.046Z,10.87
2019-04-26T08:30:44.758Z,10.83
2019-04-26T08:31:43.047Z,10.83
2019-04-26T08:32:43.013Z,10.81
2019-04-26T08:33:48.571Z,10.87
2019-04-26T08:34:44.245Z,10.81
2019-04-26T08:35:44.337Z,10.87
2019-04-26T08:36:44.097Z,10.84
2019-04-26T08:37:43.057Z,10.73
2019-04-26T08:38:43.093Z,10.70
2019-04-26T08:39:45.079Z,10.70
2019-04-26T08:40:42.930Z,10.73
2019-04-26T08:41:42.927Z,10.72
2019-04-26T08:42:42.908Z,10.70
2019-04-26T08:43:42.910Z,10.70
2019-04-26T08:44:42.896Z,10.83
2019-04-26T08:45:44.137Z,10.90
2019-04-26T08:46:43.880Z,11.01
2019-04-26T08:47:46.069Z,10.93
2019-04-26T08:48:43.840Z,11.09
2019-04-26T08:49:42.876Z,11.12
2019-04-26T08:50:45.864Z,11.12
2019-04-26T08:51:42.849Z,11.20
2019-04-26T08:52:42.815Z,11.19
2019-04-26T08:53:42.796Z,11.19
2019-04-26T08:54:42.777Z,11.17
2019-04-26T08:55:42.774Z,11.08
2019-04-26T08:56:42.766Z,11.13
2019-04-26T08:57:42.802Z,11.12
2019-04-26T08:58:42.919Z,11.06
2019-04-26T08:59:42.730Z,11.05
2019-04-26T09:00:42.722Z,11.01
2019-04-26T09:01:45.537Z,11.03
2019-04-26T09:02:42.695Z,11.05
2019-04-26T09:03:42.703Z,11.03
2019-04-26T09:04:42.674Z,11.03
2019-04-26T09:05:45.573Z,10.99
2019-04-26T09:06:43.660Z,11.12
2019-04-26T09:07:42.647Z,10.99
2019-04-26T09:08:43.555Z,11.03
2019-04-26T09:09:42.627Z,11.05
2019-04-26T09:10:43.316Z,11.03
2019-04-26T09:11:42.608Z,10.98
2019-04-26T09:12:42.623Z,10.99
2019-04-26T09:13:42.594Z,11.03
2019-04-26T09:14:42.571Z,10.98
2019-04-26T09:15:42.561Z,11.01
2019-04-26T09:16:50.202Z,10.99
2019-04-26T09:17:43.534Z,10.95
2019-04-26T09:18:44.089Z,10.91
2019-04-26T09:19:43.514Z,10.93
2019-04-26T09:20:42.960Z,10.98
2019-04-26T09:21:42.501Z,10.98
2019-04-26T09:22:42.484Z,10.95
2019-04-26T09:23:44.349Z,10.93
2019-04-26T09:24:45.449Z,11.01
2019-04-26T09:25:42.450Z,11.05
2019-04-26T09:26:46.633Z,11.05
2019-04-26T09:27:43.421Z,11.05
2019-04-26T09:28:42.419Z,11.08
2019-04-26T09:29:42.402Z,11.16
2019-04-26T09:30:44.863Z,11.03
2019-04-26T09:31:43.409Z,11.03
2019-04-26T09:32:42.381Z,11.02
2019-04-26T09:33:42.371Z,11.11
2019-04-26T09:34:42.804Z,11.19
2019-04-26T09:35:42.343Z,11.17
2019-04-26T09:36:42.331Z,11.17
2019-04-26T09:37:42.327Z,11.20
2019-04-26T09:38:42.339Z,11.28
2019-04-26T09:39:43.456Z,11.23
2019-04-26T09:40:42.285Z,11.24
2019-04-26T09:41:42.275Z,11.20
2019-04-26T09:42:42.282Z,11.26
2019-04-26T09:43:42.258Z,11.28
2019-04-26T09:44:43.005Z,11.19
2019-04-26T09:45:42.254Z,11.17
2019-04-26T09:46:44.332Z,11.27
2019-04-26T09:47:42.220Z,11.31
2019-04-26T09:48:42.199Z,11.19
2019-04-26T09:49:42.308Z,11.20
2019-04-26T09:50:42.198Z,11.23
2019-04-26T09:51:42.248Z,11.38
2019-04-26T09:52:42.166Z,11.30
2019-04-26T09:53:43.328Z,11.36
2019-04-26T09:54:42.147Z,11.41
2019-04-26T09:55:42.127Z,11.48
2019-04-26T09:56:42.109Z,11.41
2019-04-26T09:57:42.116Z,11.46
2019-04-26T09:58:42.091Z,11.46
2019-04-26T09:59:42.085Z,11.44
2019-04-26T10:00:44.019Z,11.51
2019-04-26T10:01:43.055Z,11.62
2019-04-26T10:02:42.057Z,11.54
2019-04-26T10:03:42.087Z,11.54
2019-04-26T10:04:42.032Z,11.57
2019-04-26T10:05:42.036Z,11.46
2019-04-26T10:06:42.018Z,11.49
2019-04-26T10:07:42.011Z,11.48
2019-04-26T10:08:43.405Z,11.48
2019-04-26T10:09:41.986Z,11.48
2019-04-26T10:10:41.972Z,11.54
2019-04-26T10:11:43.504Z,11.42
2019-04-26T10:12:41.974Z,11.49
2019-04-26T10:13:41.931Z,11.51
2019-04-26T10:14:41.914Z,11.48
2019-04-26T10:15:41.908Z,11.45
2019-04-26T10:16:42.400Z,11.48
2019-04-26T10:17:41.900Z,11.39
2019-04-26T10:18:41.883Z,11.42
2019-04-26T10:19:41.866Z,11.33
2019-04-26T10:20:41.854Z,11.53
2019-04-26T10:21:41.844Z,11.60
2019-04-26T10:22:41.841Z,11.51
2019-04-26T10:23:41.829Z,11.67
2019-04-26T10:24:41.818Z,11.72
2019-04-26T10:25:41.799Z,11.74
2019-04-26T10:26:41.815Z,11.77
2019-04-26T10:27:42.563Z,11.81
2019-04-26T10:28:41.785Z,11.79
2019-04-26T10:29:41.757Z,11.72
2019-04-26T10:30:42.397Z,11.85
2019-04-26T10:31:41.735Z,11.84
2019-04-26T10:32:41.771Z,11.75
2019-04-26T10:33:41.719Z,11.93
2019-04-26T10:34:42.805Z,11.93
2019-04-26T10:35:42.691Z,11.94
2019-04-26T10:36:41.690Z,11.88
2019-04-26T10:37:43.923Z,11.82
2019-04-26T10:38:42.659Z,11.90
2019-04-26T10:39:41.650Z,11.77
2019-04-26T10:40:41.645Z,11.87
2019-04-26T10:41:41.629Z,11.84
2019-04-26T10:42:41.640Z,11.84
2019-04-26T10:43:41.620Z,11.81
2019-04-26T10:44:41.601Z,11.82
2019-04-26T10:45:41.595Z,11.82
2019-04-26T10:46:41.576Z,11.84
2019-04-26T10:47:41.596Z,11.87
2019-04-26T10:48:41.555Z,11.94
2019-04-26T10:49:41.562Z,11.94
2019-04-26T10:50:41.550Z,11.98
2019-04-26T10:51:41.880Z,11.94
2019-04-26T10:52:41.510Z,12.01
2019-04-26T10:53:41.513Z,12.15
2019-04-26T10:54:44.552Z,12.04
2019-04-26T10:55:41.482Z,12.04
2019-04-26T10:56:41.492Z,12.11
2019-04-26T10:57:41.484Z,12.15
2019-04-26T10:58:41.483Z,12.19
2019-04-26T10:59:44.223Z,12.13
2019-04-26T11:00:41.432Z,12.23
2019-04-26T11:01:41.422Z,12.22
2019-04-26T11:02:41.410Z,12.29
2019-04-26T11:03:41.420Z,12.25
2019-04-26T11:04:42.875Z,12.30
2019-04-26T11:05:41.378Z,12.18
2019-04-26T11:06:41.361Z,11.98
2019-04-26T11:07:41.356Z,11.94
2019-04-26T11:08:41.370Z,11.97
2019-04-26T11:09:41.330Z,11.90
2019-04-26T11:10:48.603Z,11.88
2019-04-26T11:11:42.307Z,11.85
2019-04-26T11:12:43.337Z,11.85
2019-04-26T11:13:41.299Z,11.87
2019-04-26T11:14:41.277Z,11.81
2019-04-26T11:15:41.266Z,11.82
2019-04-26T11:16:42.257Z,11.88
2019-04-26T11:17:41.247Z,11.88
2019-04-26T11:18:41.260Z,11.93
2019-04-26T11:19:44.039Z,11.79
2019-04-26T11:20:45.342Z,11.72
2019-04-26T11:21:41.225Z,11.85
2019-04-26T11:22:41.224Z,11.74
2019-04-26T11:23:45.009Z,11.82
2019-04-26T11:24:41.171Z,11.88
2019-04-26T11:25:41.165Z,11.93
2019-04-26T11:26:41.182Z,11.90
2019-04-26T11:27:44.287Z,12.01
2019-04-26T11:28:42.166Z,12.03
2019-04-26T11:29:53.096Z,12.16
2019-04-26T11:30:42.113Z,12.21
2019-04-26T11:31:41.099Z,12.19
2019-04-26T11:32:41.111Z,12.29
2019-04-26T11:33:44.857Z,12.19
2019-04-26T11:34:42.865Z,12.37
2019-04-26T11:35:41.055Z,12.37
2019-04-26T11:36:41.804Z,12.43
2019-04-26T11:37:41.107Z,12.44
2019-04-26T11:38:41.053Z,12.43
2019-04-26T11:39:42.139Z,12.55
2019-04-26T11:40:44.462Z,12.49
2019-04-26T11:41:41.998Z,12.54
2019-04-26T11:42:41.886Z,12.61
2019-04-26T11:43:40.979Z,12.63
2019-04-26T11:44:40.958Z,12.62
2019-04-26T11:45:40.960Z,12.59
2019-04-26T11:46:45.023Z,12.59
2019-04-26T11:47:54.319Z,12.63
2019-04-26T11:48:41.927Z,12.62
2019-04-26T11:49:41.586Z,12.66
2019-04-26T11:50:40.902Z,12.59
2019-04-26T11:51:40.898Z,12.52
2019-04-26T11:52:40.877Z,12.48
2019-04-26T11:53:44.702Z,12.52
2019-04-26T11:54:40.857Z,12.48
2019-04-26T11:55:40.845Z,12.48
2019-04-26T11:56:40.839Z,12.52
2019-04-26T11:57:43.648Z,12.59
2019-04-26T11:58:41.841Z,12.73
2019-04-26T11:59:40.806Z,12.85
2019-04-26T12:00:40.801Z,12.85
2019-04-26T12:01:42.007Z,12.84
2019-04-26T12:02:40.766Z,12.89
2019-04-26T12:03:40.760Z,12.88
2019-04-26T12:04:40.758Z,12.95
2019-04-26T12:05:40.734Z,12.87
2019-04-26T12:06:40.727Z,12.88
2019-04-26T12:07:40.713Z,12.87
2019-04-26T12:08:40.715Z,12.88
2019-04-26T12:09:40.696Z,12.88
2019-04-26T12:10:44.369Z,12.81
2019-04-26T12:11:49.467Z,12.87
2019-04-26T12:12:43.112Z,12.88
2019-04-26T12:13:40.649Z,12.88
2019-04-26T12:14:40.659Z,12.88
2019-04-26T12:15:43.795Z,12.81
2019-04-26T12:16:48.068Z,12.80
2019-04-26T12:17:41.608Z,12.73
2019-04-26T12:18:44.156Z,12.70
2019-04-26T12:19:40.602Z,12.76
2019-04-26T12:20:40.576Z,12.77
2019-04-26T12:21:40.562Z,12.84
2019-04-26T12:22:43.357Z,12.96
2019-04-26T12:23:40.550Z,13.04
2019-04-26T12:24:40.546Z,13.13
2019-04-26T12:25:43.559Z,13.19
2019-04-26T12:26:43.038Z,13.17
2019-04-26T12:27:40.613Z,13.17
2019-04-26T12:28:41.357Z,13.17
2019-04-26T12:29:40.500Z,13.35
2019-04-26T12:30:40.468Z,13.48
2019-04-26T12:31:40.465Z,13.71
2019-04-26T12:32:40.452Z,13.71
2019-04-26T12:33:43.778Z,13.80
2019-04-26T12:34:40.443Z,13.81
2019-04-26T12:35:40.432Z,13.80
2019-04-26T12:36:40.407Z,13.76
2019-04-26T12:37:40.398Z,13.72
2019-04-26T12:38:40.387Z,13.72
2019-04-26T12:39:40.409Z,13.66
2019-04-26T12:40:42.232Z,13.66
2019-04-26T12:41:41.359Z,13.87
2019-04-26T12:42:43.324Z,14.26
2019-04-26T12:43:41.335Z,14.36
2019-04-26T12:44:41.203Z,14.59
2019-04-26T12:45:40.309Z,14.64
2019-04-26T12:46:40.315Z,14.79
2019-04-26T12:47:40.297Z,14.98
2019-04-26T12:48:40.277Z,15.53
2019-04-26T12:49:40.285Z,16.14
2019-04-26T12:50:40.286Z,16.42
2019-04-26T12:51:42.770Z,16.45
2019-04-26T12:52:41.233Z,16.10
2019-04-26T12:53:40.790Z,15.49